createdAt,value
2019-02-20T00:01:37.785Z,19.30
2019-02-20T00:04:06.370Z,19.57
2019-02-20T00:06:34.954Z,18.93
2019-02-20T00:09:04.345Z,20.73
2019-02-20T00:11:32.804Z,20.80
2019-02-20T00:14:01.312Z,19.53
2019-02-20T00:16:29.768Z,22.10
2019-02-20T00:18:58.280Z,20.80
2019-02-20T00:21:26.761Z,22.40
2019-02-20T00:23:55.198Z,22.20
2019-02-20T00:26:23.647Z,22.40
2019-02-20T00:28:52.204Z,22.20
2019-02-20T00:31:20.609Z,22.30
2019-02-20T00:33:49.083Z,21.23
2019-02-20T00:36:17.594Z,21.73
2019-02-20T00:38:46.128Z,22.30
2019-02-20T00:41:14.581Z,16.20
2019-02-20T00:43:44.640Z,20.10
2019-02-20T00:46:14.746Z,20.90
2019-02-20T00:48:44.801Z,17.40
2019-02-20T00:51:14.880Z,22.50
2019-02-20T00:53:45.003Z,19.33
2019-02-20T00:56:13.471Z,21.77
2019-02-20T00:58:41.972Z,21.90
2019-02-20T01:01:10.440Z,22.70
2019-02-20T01:03:38.883Z,20.33
2019-02-20T01:06:07.417Z,22.97
2019-02-20T01:08:35.889Z,23.53
2019-02-20T01:11:04.372Z,28.50
2019-02-20T01:13:32.931Z,25.03
2019-02-20T01:16:01.537Z,26.63
2019-02-20T01:18:29.946Z,20.67
2019-02-20T01:20:58.502Z,23.63
2019-02-20T01:23:27.011Z,23.50
2019-02-20T01:25:55.563Z,28.37
2019-02-20T01:28:24.055Z,26.40
2019-02-20T01:30:52.630Z,25.40
2019-02-20T01:33:21.083Z,25.43
2019-02-20T01:35:49.584Z,25.10
2019-02-20T01:38:18.044Z,25.13
2019-02-20T01:40:46.534Z,26.93
2019-02-20T01:43:14.995Z,28.73
2019-02-20T01:45:43.455Z,22.90
2019-02-20T01:48:11.989Z,23.70
2019-02-20T01:50:40.498Z,28.03
2019-02-20T01:53:10.747Z,24.87
2019-02-20T01:55:48.695Z,25.77
2019-02-20T01:58:20.164Z,26.00
2019-02-20T02:00:49.147Z,26.17
2019-02-20T02:03:18.032Z,27.73
2019-02-20T02:05:46.531Z,27.83
2019-02-20T02:08:14.991Z,22.83
2019-02-20T02:10:43.439Z,25.27
2019-02-20T02:13:11.935Z,29.07
2019-02-20T02:15:40.444Z,26.97
2019-02-20T02:18:08.923Z,24.70
2019-02-20T02:20:37.378Z,25.73
2019-02-20T02:23:05.898Z,24.70
2019-02-20T02:25:34.384Z,27.83
2019-02-20T02:28:02.879Z,24.80
2019-02-20T02:30:31.434Z,25.57
2019-02-20T02:33:00.118Z,22.97
2019-02-20T02:35:28.703Z,25.77
2019-02-20T02:37:57.174Z,26.97
2019-02-20T02:40:25.632Z,27.47
2019-02-20T02:42:54.145Z,30.20
2019-02-20T02:45:22.620Z,26.80
2019-02-20T02:47:51.056Z,25.20
2019-02-20T02:50:19.588Z,26.37
2019-02-20T02:52:48.024Z,26.00
2019-02-20T02:55:16.554Z,24.87
2019-02-20T02:57:45.089Z,27.10
2019-02-20T03:00:14.843Z,24.90
2019-02-20T03:02:43.325Z,21.57
2019-02-20T03:05:11.799Z,19.93
2019-02-20T03:07:40.265Z,21.07
2019-02-20T03:10:09.406Z,16.40
2019-02-20T03:12:37.910Z,18.50
2019-02-20T03:15:07.847Z,19.17
2019-02-20T03:17:36.316Z,17.77
2019-02-20T03:20:06.607Z,18.53
2019-02-20T03:22:35.071Z,16.10
2019-02-20T03:25:04.270Z,17.30
2019-02-20T03:27:32.746Z,16.67
2019-02-20T03:30:01.226Z,18.63
2019-02-20T03:32:29.758Z,17.30
2019-02-20T03:34:58.288Z,16.40
2019-02-20T03:37:26.780Z,17.97
2019-02-20T03:39:55.353Z,20.10
2019-02-20T03:42:23.937Z,19.03
2019-02-20T03:44:52.412Z,19.83
2019-02-20T03:47:21.002Z,21.73
2019-02-20T03:49:49.585Z,21.13
2019-02-20T03:52:18.479Z,24.40
2019-02-20T03:54:47.365Z,19.77
2019-02-20T03:57:16.256Z,21.07
2019-02-20T03:59:45.250Z,20.90
2019-02-20T04:02:14.245Z,20.43
2019-02-20T04:04:43.134Z,21.10
2019-02-20T04:07:12.270Z,19.97
2019-02-20T04:09:42.543Z,20.72
2019-02-20T04:12:11.546Z,25.17
2019-02-20T04:14:40.539Z,25.48
2019-02-20T04:17:09.423Z,22.33
2019-02-20T04:19:38.321Z,27.42
2019-02-20T04:22:07.211Z,25.60
2019-02-20T04:24:36.212Z,27.82
2019-02-20T04:27:05.197Z,24.97
2019-02-20T04:29:34.093Z,31.50
2019-02-20T04:32:02.979Z,29.23
2019-02-20T04:34:31.869Z,29.42
2019-02-20T04:37:00.763Z,35.35
2019-02-20T04:39:29.651Z,30.57
2019-02-20T04:41:58.645Z,31.73
2019-02-20T04:44:27.639Z,30.10
2019-02-20T04:46:56.635Z,28.95
2019-02-20T04:49:25.521Z,31.90
2019-02-20T04:51:54.411Z,34.93
2019-02-20T04:54:23.304Z,31.30
2019-02-20T04:56:52.192Z,32.90
2019-02-20T04:59:21.082Z,32.05
2019-02-20T05:01:49.975Z,30.43
2019-02-20T05:04:18.866Z,30.05
2019-02-20T05:06:47.857Z,29.80
2019-02-20T05:09:16.850Z,33.97
2019-02-20T05:11:45.743Z,32.60
2019-02-20T05:14:14.631Z,37.53
2019-02-20T05:16:43.529Z,36.60
2019-02-20T05:19:12.515Z,36.68
2019-02-20T05:21:41.509Z,41.90
2019-02-20T05:24:10.501Z,41.15
2019-02-20T05:26:39.403Z,43.65
2019-02-20T05:29:07.873Z,40.17
2019-02-20T05:31:36.311Z,37.20
2019-02-20T05:34:04.853Z,41.80
2019-02-20T05:36:33.829Z,41.47
2019-02-20T05:39:02.822Z,41.13
2019-02-20T05:41:31.711Z,41.50
2019-02-20T05:44:00.705Z,41.02
2019-02-20T05:46:29.596Z,38.25
2019-02-20T05:48:58.498Z,37.30
2019-02-20T05:51:27.482Z,37.08
2019-02-20T05:53:56.388Z,38.75
2019-02-20T05:56:25.672Z,37.03
2019-02-20T05:58:54.664Z,42.45
2019-02-20T06:01:23.555Z,53.35
2019-02-20T06:03:52.446Z,64.20
2019-02-20T06:06:21.335Z,69.25
2019-02-20T06:08:50.339Z,56.98
2019-02-20T06:11:19.322Z,53.40
2019-02-20T06:13:48.314Z,50.45
2019-02-20T06:16:17.208Z,49.50
2019-02-20T06:18:45.662Z,42.43
2019-02-20T06:21:16.239Z,41.20
2019-02-20T06:23:44.242Z,41.65
2019-02-20T06:26:12.752Z,37.15
2019-02-20T06:28:41.355Z,34.53
2019-02-20T06:31:09.858Z,36.48
2019-02-20T06:33:38.415Z,40.27
2019-02-20T06:36:06.910Z,36.60
2019-02-20T06:38:35.494Z,33.47
2019-02-20T06:41:03.943Z,34.50
2019-02-20T06:43:32.444Z,34.67
2019-02-20T06:46:00.893Z,36.40
2019-02-20T06:48:29.407Z,34.00
2019-02-20T06:50:58.397Z,34.73
2019-02-20T06:53:27.287Z,32.60
2019-02-20T06:55:56.178Z,37.30
2019-02-20T06:58:25.175Z,32.10
2019-02-20T07:00:54.057Z,32.57
2019-02-20T07:03:22.955Z,36.87
2019-02-20T07:05:54.307Z,31.90
2019-02-20T07:08:29.137Z,32.17
2019-02-20T07:11:33.150Z,36.13
2019-02-20T07:14:07.874Z,35.07
2019-02-20T07:17:18.850Z,31.13
2019-02-20T07:20:02.896Z,38.90
2019-02-20T07:22:37.317Z,42.30
2019-02-20T07:25:24.231Z,38.50
2019-02-20T07:28:02.132Z,37.63
2019-02-20T07:30:30.612Z,39.87
2019-02-20T07:32:59.061Z,35.67
2019-02-20T07:35:27.572Z,39.10
2019-02-20T07:37:56.035Z,30.73
2019-02-20T07:40:24.540Z,34.63
2019-02-20T07:42:52.981Z,37.77
2019-02-20T07:45:21.437Z,33.07
2019-02-20T07:47:49.981Z,37.10
2019-02-20T07:50:18.576Z,30.80
2019-02-20T07:52:47.148Z,37.63
2019-02-20T07:55:15.615Z,34.87
2019-02-20T07:57:44.213Z,32.23
2019-02-20T08:00:14.064Z,31.80
2019-02-20T08:02:42.527Z,30.43
2019-02-20T08:05:11.130Z,29.80
2019-02-20T08:07:39.634Z,29.67
2019-02-20T08:10:09.590Z,28.87
2019-02-20T08:12:38.071Z,25.90
2019-02-20T08:15:09.853Z,26.23
2019-02-20T08:17:38.822Z,27.00
2019-02-20T08:20:09.043Z,24.43
2019-02-20T08:22:37.487Z,19.87
2019-02-20T08:25:07.029Z,19.57
2019-02-20T08:27:36.022Z,18.20
2019-02-20T08:30:07.985Z,18.70
2019-02-20T08:32:36.876Z,18.57
2019-02-20T08:35:08.408Z,16.03
2019-02-20T08:37:37.321Z,16.47
2019-02-20T08:40:09.278Z,16.53
2019-02-20T08:42:38.277Z,16.70
2019-02-20T08:45:10.015Z,16.73
2019-02-20T08:47:38.925Z,16.37
2019-02-20T08:50:11.129Z,15.50
2019-02-20T08:52:40.085Z,12.47
2019-02-20T08:55:13.223Z,14.47
2019-02-20T08:57:42.169Z,12.47
2019-02-20T09:00:15.856Z,15.20
2019-02-20T09:02:44.760Z,12.87
2019-02-20T09:05:13.652Z,13.17
2019-02-20T09:07:42.644Z,14.63
2019-02-20T09:10:13.920Z,13.43
2019-02-20T09:12:42.775Z,13.13
2019-02-20T09:15:14.028Z,13.70
2019-02-20T09:17:43.024Z,13.47
2019-02-20T09:20:13.016Z,15.50
2019-02-20T09:22:41.929Z,14.33
2019-02-20T09:25:19.558Z,12.47
2019-02-20T09:27:42.782Z,16.53
2019-02-20T09:30:14.600Z,23.53
2019-02-20T09:32:43.535Z,16.63
2019-02-20T09:35:13.244Z,12.20
2019-02-20T09:37:42.135Z,9.90
2019-02-20T09:40:17.067Z,10.97
2019-02-20T09:42:51.592Z,27.20
2019-02-20T09:45:20.488Z,14.40
2019-02-20T09:47:49.475Z,11.57
2019-02-20T09:50:18.466Z,9.70
2019-02-20T09:52:52.429Z,10.43
2019-02-20T09:55:17.884Z,11.33
2019-02-20T09:57:46.777Z,11.23
2019-02-20T10:00:18.736Z,21.40
2019-02-20T10:02:47.733Z,20.50
2019-02-20T10:05:16.616Z,11.00
2019-02-20T10:07:45.516Z,11.30
2019-02-20T10:10:14.405Z,15.53
2019-02-20T10:12:43.397Z,13.27
2019-02-20T10:15:17.940Z,15.47
2019-02-20T10:17:46.915Z,12.93
2019-02-20T10:20:15.907Z,10.90
2019-02-20T10:22:44.796Z,11.93
2019-02-20T10:25:14.643Z,20.90
2019-02-20T10:27:43.531Z,11.67
2019-02-20T10:30:17.924Z,16.37
2019-02-20T10:32:46.916Z,14.77
2019-02-20T10:35:15.907Z,13.53
2019-02-20T10:37:44.797Z,13.33
2019-02-20T10:40:13.687Z,13.20
2019-02-20T10:42:42.580Z,13.80
2019-02-20T10:45:15.361Z,11.10
2019-02-20T10:47:44.354Z,15.83
2019-02-20T10:50:14.224Z,15.47
2019-02-20T10:52:43.159Z,12.63
2019-02-20T10:55:12.154Z,12.33
2019-02-20T10:57:41.149Z,11.80
2019-02-20T11:00:23.550Z,14.77
2019-02-20T11:02:45.385Z,13.70
2019-02-20T11:05:14.276Z,12.07
2019-02-20T11:07:43.266Z,14.00
2019-02-20T11:10:12.867Z,16.10
2019-02-20T11:12:41.761Z,13.47
2019-02-20T11:15:13.170Z,12.00
2019-02-20T11:17:42.201Z,13.63
2019-02-20T11:20:13.680Z,13.23
2019-02-20T11:22:42.962Z,13.27
2019-02-20T11:25:13.995Z,14.30
2019-02-20T11:27:42.889Z,13.43
2019-02-20T11:30:38.193Z,13.10
2019-02-20T11:33:07.043Z,15.63
2019-02-20T11:35:35.980Z,13.77
2019-02-20T11:38:04.870Z,12.10
2019-02-20T11:40:33.864Z,15.70
2019-02-20T11:43:02.754Z,13.17
2019-02-20T11:45:31.644Z,13.03
2019-02-20T11:48:00.532Z,12.80
2019-02-20T11:50:29.372Z,11.50
2019-02-20T11:52:58.317Z,10.73
2019-02-20T11:55:27.310Z,12.30
2019-02-20T11:58:00.632Z,13.20
2019-02-20T12:00:26.693Z,12.30
2019-02-20T12:02:55.621Z,13.53
2019-02-20T12:05:24.513Z,17.60
2019-02-20T12:07:53.390Z,12.40
2019-02-20T12:10:23.010Z,12.47
2019-02-20T12:12:51.901Z,12.73
2019-02-20T12:15:20.812Z,14.23
2019-02-20T12:17:49.785Z,13.10
2019-02-20T12:20:18.676Z,14.33
2019-02-20T12:22:48.390Z,16.10
2019-02-20T12:25:17.379Z,12.03
2019-02-20T12:27:46.270Z,15.13
2019-02-20T12:30:15.159Z,14.43
2019-02-20T12:32:44.667Z,18.57
2019-02-20T12:35:13.523Z,12.83
2019-02-20T12:37:42.446Z,15.90
2019-02-20T12:40:12.259Z,12.83
2019-02-20T12:42:41.971Z,12.53
2019-02-20T12:45:13.115Z,16.60
2019-02-20T12:47:42.111Z,12.37
2019-02-20T12:50:13.952Z,14.67
2019-02-20T12:52:42.858Z,14.37
2019-02-20T12:55:11.851Z,20.03
2019-02-20T12:57:40.741Z,13.90
2019-02-20T13:00:15.764Z,15.60
2019-02-20T13:02:44.667Z,13.07
2019-02-20T13:05:13.496Z,13.77
2019-02-20T13:07:42.448Z,12.40
2019-02-20T13:10:11.543Z,13.57
2019-02-20T13:12:40.405Z,11.30
2019-02-20T13:15:12.295Z,11.10
2019-02-20T13:17:41.184Z,13.30
2019-02-20T13:20:12.289Z,13.13
2019-02-20T13:22:41.936Z,11.37
2019-02-20T13:25:11.033Z,16.63
2019-02-20T13:27:40.320Z,12.53
2019-02-20T13:30:13.152Z,13.30
2019-02-20T13:32:42.108Z,18.40
2019-02-20T13:35:11.658Z,9.90
2019-02-20T13:37:40.606Z,11.53
2019-02-20T13:40:11.962Z,12.13
2019-02-20T13:42:40.948Z,13.50
2019-02-20T13:45:10.862Z,18.10
2019-02-20T13:47:40.430Z,11.00
2019-02-20T13:50:12.209Z,12.63
2019-02-20T13:52:42.127Z,11.83
2019-02-20T13:55:10.983Z,11.03
2019-02-20T13:57:39.924Z,11.13
2019-02-20T14:00:13.497Z,13.87
2019-02-20T14:02:42.512Z,13.63
2019-02-20T14:05:11.409Z,13.00
2019-02-20T14:07:40.710Z,10.70
2019-02-20T14:10:30.357Z,12.63
2019-02-20T14:12:59.277Z,11.00
2019-02-20T14:15:28.169Z,11.63
2019-02-20T14:17:57.161Z,13.40
2019-02-20T14:20:26.155Z,11.50
2019-02-20T14:22:55.045Z,11.33
2019-02-20T14:25:23.937Z,31.73
2019-02-20T14:27:52.857Z,16.80
2019-02-20T14:30:21.820Z,11.90
2019-02-20T14:32:50.714Z,11.80
2019-02-20T14:35:20.626Z,24.27
2019-02-20T14:37:49.623Z,18.23
2019-02-20T14:40:18.613Z,13.13
2019-02-20T14:42:47.503Z,18.17
2019-02-20T14:45:17.145Z,17.60
2019-02-20T14:47:45.996Z,13.13
2019-02-20T14:50:14.891Z,11.50
2019-02-20T14:52:43.787Z,16.90
2019-02-20T14:55:12.773Z,16.80
2019-02-20T14:57:41.771Z,14.03
2019-02-20T15:00:16.476Z,13.80
2019-02-20T15:02:45.389Z,14.10
2019-02-20T15:05:14.320Z,16.20
2019-02-20T15:07:43.887Z,14.67
2019-02-20T15:10:12.777Z,12.27
2019-02-20T15:12:41.644Z,17.37
2019-02-20T15:15:14.552Z,15.40
2019-02-20T15:17:43.445Z,13.47
2019-02-20T15:20:12.334Z,11.97
2019-02-20T15:22:41.328Z,14.70
2019-02-20T15:25:11.142Z,13.90
2019-02-20T15:27:40.029Z,12.23
2019-02-20T15:30:12.444Z,11.93
2019-02-20T15:32:42.105Z,19.43
2019-02-20T15:35:11.003Z,13.40
2019-02-20T15:37:39.996Z,14.83
2019-02-20T15:40:11.245Z,14.10
2019-02-20T15:42:40.238Z,18.53
2019-02-20T15:45:11.917Z,16.20
2019-02-20T15:47:40.884Z,16.87
2019-02-20T15:50:15.216Z,14.47
2019-02-20T15:52:44.088Z,15.80
2019-02-20T15:55:14.332Z,13.93
2019-02-20T15:57:43.309Z,13.93
2019-02-20T16:00:16.501Z,15.80
2019-02-20T16:02:45.494Z,13.47
2019-02-20T16:05:15.413Z,17.00
2019-02-20T16:07:44.297Z,14.60
2019-02-20T16:10:13.188Z,13.03
2019-02-20T16:12:43.153Z,16.20
2019-02-20T16:15:14.725Z,16.73
2019-02-20T16:17:44.922Z,15.30
2019-02-20T16:20:15.203Z,13.17
2019-02-20T16:22:44.085Z,17.60
2019-02-20T16:25:17.080Z,13.60
2019-02-20T16:27:47.603Z,14.67
2019-02-20T16:30:16.501Z,15.83
2019-02-20T16:32:44.972Z,15.80
2019-02-20T16:35:14.426Z,14.63
2019-02-20T16:37:42.881Z,14.27
2019-02-20T16:40:13.072Z,13.30
2019-02-20T16:42:41.539Z,13.30
2019-02-20T16:45:23.375Z,17.73
2019-02-20T16:47:52.729Z,13.80
2019-02-20T16:50:21.177Z,17.10
2019-02-20T16:52:49.787Z,20.17
2019-02-20T16:55:19.738Z,16.87
2019-02-20T16:57:56.382Z,21.77
2019-02-20T17:00:21.979Z,17.13
2019-02-20T17:02:50.836Z,17.80
2019-02-20T17:05:19.401Z,20.70
2019-02-20T17:07:47.903Z,19.13
2019-02-20T17:10:18.243Z,19.00
2019-02-20T17:12:46.792Z,16.73
2019-02-20T17:15:15.691Z,18.27
2019-02-20T17:17:44.158Z,19.30
2019-02-20T17:20:14.079Z,22.57
2019-02-20T17:22:43.481Z,27.37
2019-02-20T17:25:12.985Z,26.47
2019-02-20T17:27:41.433Z,18.40
2019-02-20T17:30:11.387Z,19.07
2019-02-20T17:32:39.852Z,19.47
2019-02-20T17:35:10.199Z,17.73
2019-02-20T17:37:38.771Z,21.23
2019-02-20T17:40:08.856Z,20.40
2019-02-20T17:42:37.306Z,19.13
2019-02-20T17:45:07.276Z,19.63
2019-02-20T17:47:35.771Z,20.67
2019-02-20T17:50:24.528Z,18.90
2019-02-20T17:52:53.044Z,23.17
2019-02-20T17:55:21.691Z,28.73
2019-02-20T17:57:50.200Z,20.97
2019-02-20T18:00:20.926Z,22.13
2019-02-20T18:02:49.486Z,20.00
2019-02-20T18:05:17.982Z,23.57
2019-02-20T18:07:49.638Z,21.30
2019-02-20T18:10:16.575Z,22.17
2019-02-20T18:12:45.152Z,25.50
2019-02-20T18:15:14.157Z,29.27
2019-02-20T18:17:42.935Z,24.60
2019-02-20T18:20:12.194Z,24.57
2019-02-20T18:22:40.828Z,27.37
2019-02-20T18:25:10.157Z,26.00
2019-02-20T18:27:38.708Z,26.67
2019-02-20T18:30:08.830Z,25.83
2019-02-20T18:32:37.258Z,27.97
2019-02-20T18:35:26.473Z,25.27
2019-02-20T18:37:55.300Z,22.37
2019-02-20T18:40:23.845Z,24.83
2019-02-20T18:42:52.363Z,28.03
2019-02-20T18:45:21.023Z,24.37
2019-02-20T18:47:49.463Z,27.37
2019-02-20T18:50:17.970Z,25.80
2019-02-20T18:52:46.523Z,26.53
2019-02-20T18:55:14.979Z,29.50
2019-02-20T18:57:43.487Z,26.10
2019-02-20T19:00:13.436Z,24.60
2019-02-20T19:02:42.033Z,27.80
2019-02-20T19:05:11.553Z,27.20
2019-02-20T19:07:40.015Z,26.53
2019-02-20T19:10:13.082Z,28.07
2019-02-20T19:12:43.028Z,24.87
2019-02-20T19:15:12.956Z,26.00
2019-02-20T19:17:45.741Z,26.43
2019-02-20T19:20:16.251Z,31.67
2019-02-20T19:22:55.164Z,27.43
2019-02-20T19:25:34.548Z,28.60
2019-02-20T19:28:04.706Z,25.10
2019-02-20T19:30:44.016Z,24.97
2019-02-20T19:33:14.791Z,27.93
2019-02-20T19:35:44.765Z,26.00
2019-02-20T19:38:27.097Z,26.93
2019-02-20T19:40:57.138Z,27.63
2019-02-20T19:43:39.265Z,23.93
2019-02-20T19:46:21.386Z,27.47
2019-02-20T19:48:51.478Z,32.20
2019-02-20T19:51:39.697Z,30.40
2019-02-20T19:54:12.456Z,28.20
2019-02-20T19:56:44.164Z,27.67
2019-02-20T19:59:32.524Z,30.00
2019-02-20T20:02:05.443Z,28.60
2019-02-20T20:04:35.502Z,26.57
2019-02-20T20:07:08.593Z,24.93
2019-02-20T20:09:38.886Z,27.30
2019-02-20T20:12:21.839Z,30.33
2019-02-20T20:14:52.251Z,23.60
2019-02-20T20:17:41.098Z,28.90
2019-02-20T20:20:14.073Z,23.23
2019-02-20T20:23:09.158Z,25.47
2019-02-20T20:25:42.168Z,23.87
2019-02-20T20:28:17.952Z,26.67
2019-02-20T20:30:50.953Z,21.23
2019-02-20T20:33:24.518Z,25.05
2019-02-20T20:36:00.289Z,23.63
2019-02-20T20:38:36.271Z,24.33
2019-02-20T20:41:15.256Z,23.50
2019-02-20T20:43:48.038Z,19.40
2019-02-20T20:46:18.065Z,22.20
2019-02-20T20:48:48.071Z,21.20
2019-02-20T20:51:17.980Z,23.37
2019-02-20T20:53:56.187Z,20.73
2019-02-20T20:56:44.047Z,19.37
2019-02-20T20:59:17.549Z,17.90
2019-02-20T21:01:45.596Z,22.40
2019-02-20T21:04:21.664Z,19.30
2019-02-20T21:06:54.428Z,21.60
2019-02-20T21:09:24.360Z,19.10
2019-02-20T21:11:57.399Z,21.47
2019-02-20T21:14:27.321Z,21.90
2019-02-20T21:17:03.258Z,25.00
2019-02-20T21:19:42.345Z,21.60
2019-02-20T21:22:12.308Z,19.23
2019-02-20T21:24:55.520Z,23.00
2019-02-20T21:27:32.983Z,18.93
2019-02-20T21:30:09.076Z,20.05
2019-02-20T21:32:39.434Z,19.83
2019-02-20T21:35:13.066Z,19.70
2019-02-20T21:37:45.729Z,20.83
2019-02-20T21:40:15.762Z,22.43
2019-02-20T21:43:02.676Z,18.27
2019-02-20T21:45:39.762Z,21.00
2019-02-20T21:48:16.670Z,23.63
2019-02-20T21:50:55.799Z,19.33
2019-02-20T21:53:44.180Z,19.50
2019-02-20T21:56:14.132Z,20.23
2019-02-20T21:58:59.416Z,20.00
2019-02-20T22:01:34.320Z,20.50
2019-02-20T22:04:19.105Z,20.67
2019-02-20T22:07:04.173Z,20.03
2019-02-20T22:09:36.918Z,21.83
2019-02-20T22:12:09.937Z,25.80
2019-02-20T22:14:39.856Z,20.57
2019-02-20T22:17:16.020Z,24.37
2019-02-20T22:19:45.974Z,24.77
2019-02-20T22:22:21.676Z,23.80
2019-02-20T22:24:52.720Z,22.83
2019-02-20T22:27:23.323Z,25.53
2019-02-20T22:29:59.621Z,25.20
2019-02-20T22:32:35.584Z,23.20
2019-02-20T22:35:08.631Z,29.47
2019-02-20T22:37:41.563Z,24.80
2019-02-20T22:40:27.951Z,24.33
2019-02-20T22:43:10.051Z,26.03
2019-02-20T22:45:58.193Z,24.80
2019-02-20T22:48:45.044Z,23.73
2019-02-20T22:51:18.196Z,27.37
2019-02-20T22:53:54.152Z,32.97
2019-02-20T22:56:36.766Z,26.50
2019-02-20T22:59:09.452Z,27.35
2019-02-20T23:01:39.463Z,29.60
2019-02-20T23:04:26.069Z,26.80
2019-02-20T23:06:56.085Z,28.20
2019-02-20T23:09:41.111Z,29.10
2019-02-20T23:12:27.654Z,29.30
2019-02-20T23:14:58.776Z,30.45
2019-02-20T23:17:28.508Z,31.85
2019-02-20T23:19:57.970Z,34.05
2019-02-20T23:22:27.071Z,31.73
2019-02-20T23:24:55.698Z,34.35
2019-02-20T23:27:24.152Z,33.43
2019-02-20T23:29:52.607Z,32.17
2019-02-20T23:32:21.102Z,31.80
2019-02-20T23:34:49.556Z,32.57
2019-02-20T23:37:18.017Z,31.70
2019-02-20T23:39:46.521Z,32.42
2019-02-20T23:42:15.065Z,35.43
2019-02-20T23:44:43.535Z,33.23
2019-02-20T23:47:12.031Z,32.43
2019-02-20T23:49:40.508Z,33.67
2019-02-20T23:52:08.955Z,32.53
2019-02-20T23:54:37.471Z,37.23
2019-02-20T23:57:05.925Z,34.47
2019-02-20T23:59:34.384Z,32.33
